Time,TemperatureF,DewpointF,PressureIn,WindDirection,WindDirectionDegrees,WindSpeedMPH,WindSpeedGustMPH,Humidity,HourlyPrecipIn,Conditions,Clouds,dailyrainin,SoftwareType,DateUTC
2013-02-27 00:01:00,54.7,20.5,29.89,East,90,2.0,8.0,26,0.00,,,0.00,meteohub,2013-02-27 06:01:00,
2013-02-27 00:06:00,54.7,20.5,29.89,East,90,2.0,6.0,26,0.00,,,0.00,meteohub,2013-02-27 06:06:00,
2013-02-27 00:11:00,52.9,23.9,29.89,NW,315,3.0,5.0,32,0.00,,,0.00,meteohub,2013-02-27 06:11:00,
2013-02-27 00:16:00,50.4,24.4,29.90,West,270,4.0,4.0,36,0.00,,,0.00,meteohub,2013-02-27 06:16:00,
2013-02-27 00:21:00,48.0,24.8,29.89,West,270,2.0,4.0,40,0.00,,,0.00,meteohub,2013-02-27 06:21:00,
2013-02-27 00:26:00,46.8,24.3,29.89,West,270,0.0,4.0,41,0.00,,,0.00,meteohub,2013-02-27 06:26:00,
2013-02-27 00:31:00,45.7,25.5,29.89,NE,45,2.0,4.0,45,0.00,,,0.00,meteohub,2013-02-27 06:31:00,
2013-02-27 00:36:00,44.6,24.1,29.88,East,90,1.0,2.0,44,0.00,,,0.00,meteohub,2013-02-27 06:36:00,
2013-02-27 00:41:00,43.9,23.9,29.89,NW,315,2.0,2.0,45,0.00,,,0.00,meteohub,2013-02-27 06:41:00,
2013-02-27 00:46:00,43.2,23.7,29.89,SW,225,2.0,2.0,46,0.00,,,0.00,meteohub,2013-02-27 06:46:00,
2013-02-27 00:51:00,42.4,24.1,29.89,NW,315,1.0,2.0,48,0.00,,,0.00,meteohub,2013-02-27 06:51:00,
2013-02-27 00:56:00,41.7,23.9,29.89,NW,315,1.0,2.0,49,0.00,,,0.00,meteohub,2013-02-27 06:56:00,
2013-02-27 01:01:00,41.2,25.3,29.89,South,180,1.0,2.0,53,0.00,,,0.00,meteohub,2013-02-27 07:01:00,
2013-02-27 01:06:00,41.0,25.7,29.89,NW,315,1.0,2.0,54,0.00,,,0.00,meteohub,2013-02-27 07:06:00,
2013-02-27 01:11:00,40.8,26.4,29.89,NE,45,1.0,2.0,56,0.00,,,0.00,meteohub,2013-02-27 07:11:00,
2013-02-27 01:17:00,40.6,25.7,29.89,NE,45,2.0,3.0,55,0.00,,,0.00,meteohub,2013-02-27 07:17:00,
2013-02-27 01:22:00,40.3,25.3,29.89,NE,45,2.0,3.0,55,0.00,,,0.00,meteohub,2013-02-27 07:22:00,
2013-02-27 01:27:00,39.9,25.5,29.89,NE,45,4.0,4.0,56,0.00,,,0.00,meteohub,2013-02-27 07:27:00,
2013-02-27 01:32:00,40.6,26.2,29.89,ENE,68,4.0,4.0,56,0.00,,,0.00,meteohub,2013-02-27 07:32:00,
2013-02-27 01:37:00,43.0,26.6,29.90,East,90,2.0,4.0,52,0.00,,,0.00,meteohub,2013-02-27 07:37:00,
2013-02-27 01:42:00,43.9,25.9,29.90,South,180,2.0,4.0,49,0.00,,,0.00,meteohub,2013-02-27 07:42:00,
2013-02-27 01:47:00,44.2,25.7,29.89,NE,45,2.0,4.0,48,0.00,,,0.00,meteohub,2013-02-27 07:47:00,
2013-02-27 01:52:00,44.4,25.9,29.90,NW,315,2.0,4.0,48,0.00,,,0.00,meteohub,2013-02-27 07:52:00,
2013-02-27 01:57:00,44.1,25.7,29.90,NW,315,2.0,3.0,48,0.00,,,0.00,meteohub,2013-02-27 07:57:00,
2013-02-27 02:02:00,43.7,25.7,29.90,West,270,2.0,3.0,49,0.00,,,0.00,meteohub,2013-02-27 08:02:00,
2013-02-27 02:07:00,43.7,25.7,29.90,West,270,2.0,2.0,49,0.00,,,0.00,meteohub,2013-02-27 08:07:00,
2013-02-27 02:12:00,42.6,26.2,29.91,NW,315,3.0,3.0,52,0.00,,,0.00,meteohub,2013-02-27 08:12:00,
2013-02-27 02:17:00,42.6,26.6,29.90,SE,135,2.0,3.0,53,0.00,,,0.00,meteohub,2013-02-27 08:17:00,
2013-02-27 02:22:00,42.8,26.4,29.90,East,90,6.0,6.0,52,0.00,,,0.00,meteohub,2013-02-27 08:22:00,
2013-02-27 02:27:00,47.1,26.8,29.90,NE,45,9.0,9.0,45,0.00,,,0.00,meteohub,2013-02-27 08:27:00,
2013-02-27 02:32:00,50.2,23.5,29.90,NE,45,9.0,10.0,35,0.00,,,0.00,meteohub,2013-02-27 08:32:00,
2013-02-27 02:37:00,51.1,23.7,29.90,ENE,68,3.0,10.0,34,0.00,,,0.00,meteohub,2013-02-27 08:37:00,
2013-02-27 02:42:00,51.1,23.7,29.89,East,90,4.0,10.0,34,0.00,,,0.00,meteohub,2013-02-27 08:42:00,
2013-02-27 02:47:00,50.7,23.4,29.90,NE,45,4.0,9.0,34,0.00,,,0.00,meteohub,2013-02-27 08:47:00,
2013-02-27 02:52:00,50.7,23.4,29.90,SW,225,2.0,5.0,34,0.00,,,0.00,meteohub,2013-02-27 08:52:00,
2013-02-27 02:57:00,50.2,23.5,29.90,SW,225,2.0,5.0,35,0.00,,,0.00,meteohub,2013-02-27 08:57:00,
2013-02-27 03:02:00,49.3,24.8,29.90,NW,315,2.0,4.0,38,0.00,,,0.00,meteohub,2013-02-27 09:02:00,
2013-02-27 03:07:00,48.2,25.0,29.90,NW,315,2.0,3.0,40,0.00,,,0.00,meteohub,2013-02-27 09:07:00,
2013-02-27 03:12:00,47.5,26.6,29.89,North,0,1.0,2.0,44,0.00,,,0.00,meteohub,2013-02-27 09:12:00,
2013-02-27 03:17:00,47.8,27.0,29.89,NE,45,4.0,4.0,44,0.00,,,0.00,meteohub,2013-02-27 09:17:00,
2013-02-27 03:22:00,49.3,27.1,29.89,ENE,68,2.0,4.0,42,0.00,,,0.00,meteohub,2013-02-27 09:22:00,
2013-02-27 03:27:00,50.4,27.5,29.89,SE,135,3.0,5.0,41,0.00,,,0.00,meteohub,2013-02-27 09:27:00,
2013-02-27 03:32:00,49.3,26.6,29.90,South,180,3.0,5.0,41,0.00,,,0.00,meteohub,2013-02-27 09:32:00,
2013-02-27 03:37:00,49.6,28.6,29.90,NW,315,3.0,5.0,44,0.00,,,0.00,meteohub,2013-02-27 09:37:00,
2013-02-27 03:42:00,48.9,28.0,29.90,North,0,3.0,5.0,44,0.00,,,0.00,meteohub,2013-02-27 09:42:00,
2013-02-27 03:47:00,47.1,26.8,29.90,SW,225,2.0,5.0,45,0.00,,,0.00,meteohub,2013-02-27 09:47:00,
2013-02-27 03:52:00,46.4,27.3,29.90,East,90,4.0,4.0,47,0.00,,,0.00,meteohub,2013-02-27 09:52:00,
2013-02-27 03:57:00,47.7,28.4,29.95,WSW,248,5.0,5.0,47,0.00,,,0.00,meteohub,2013-02-27 09:57:00,
2013-02-27 04:02:00,47.3,28.0,29.96,SW,225,4.0,8.0,47,0.00,,,0.00,meteohub,2013-02-27 10:02:00,
2013-02-27 04:07:00,47.3,28.0,29.95,SW,225,4.0,8.0,47,0.00,,,0.00,meteohub,2013-02-27 10:07:00,
2013-02-27 04:12:00,48.4,27.5,29.96,SE,135,2.0,8.0,44,0.00,,,0.00,meteohub,2013-02-27 10:12:00,
2013-02-27 04:17:00,48.0,27.7,29.96,West,270,2.0,4.0,45,0.00,,,0.00,meteohub,2013-02-27 10:17:00,
2013-02-27 04:22:00,47.5,27.1,29.96,SW,225,1.0,8.0,45,0.00,,,0.00,meteohub,2013-02-27 10:22:00,
2013-02-27 04:27:00,47.3,27.0,29.96,NE,45,2.0,8.0,45,0.00,,,0.00,meteohub,2013-02-27 10:27:00,
2013-02-27 04:32:00,46.8,26.6,29.95,NE,45,2.0,8.0,45,0.00,,,0.00,meteohub,2013-02-27 10:32:00,
2013-02-27 04:37:00,46.0,25.9,29.95,NE,45,0.0,2.0,45,0.00,,,0.00,meteohub,2013-02-27 10:37:00,
2013-02-27 04:42:00,45.5,25.9,29.95,NE,45,2.0,2.0,46,0.00,,,0.00,meteohub,2013-02-27 10:42:00,
2013-02-27 04:48:00,45.5,27.0,29.95,NE,45,4.0,4.0,48,0.00,,,0.00,meteohub,2013-02-27 10:48:00,
2013-02-27 04:53:00,46.6,27.5,29.94,NE,45,4.0,4.0,47,0.00,,,0.00,meteohub,2013-02-27 10:53:00,
2013-02-27 04:58:00,47.7,27.3,29.94,East,90,4.0,4.0,45,0.00,,,0.00,meteohub,2013-02-27 10:58:00,
2013-02-27 05:03:00,49.1,24.6,29.94,SE,135,4.0,4.0,38,0.00,,,0.00,meteohub,2013-02-27 11:03:00,
2013-02-27 05:08:00,50.5,23.2,29.94,East,90,4.0,6.0,34,0.00,,,0.00,meteohub,2013-02-27 11:08:00,
2013-02-27 05:13:00,51.6,22.6,29.95,SE,135,3.0,6.0,32,0.00,,,0.00,meteohub,2013-02-27 11:13:00,
2013-02-27 05:18:00,52.9,20.7,29.95,South,180,4.0,6.0,28,0.00,,,0.00,meteohub,2013-02-27 11:18:00,
2013-02-27 05:23:00,53.6,19.6,29.95,South,180,4.0,6.0,26,0.00,,,0.00,meteohub,2013-02-27 11:23:00,
2013-02-27 05:28:00,54.0,19.8,29.95,NE,45,6.0,8.0,26,0.00,,,0.00,meteohub,2013-02-27 11:28:00,
2013-02-27 05:33:00,54.7,18.5,29.95,NE,45,5.0,8.0,24,0.00,,,0.00,meteohub,2013-02-27 11:33:00,
2013-02-27 05:38:00,55.0,18.9,29.96,SE,135,5.0,8.0,24,0.00,,,0.00,meteohub,2013-02-27 11:38:00,
2013-02-27 05:43:00,55.2,19.0,29.95,NE,45,4.0,6.0,24,0.00,,,0.00,meteohub,2013-02-27 11:43:00,
2013-02-27 05:48:00,55.2,19.0,29.96,East,90,4.0,7.0,24,0.00,,,0.00,meteohub,2013-02-27 11:48:00,
2013-02-27 05:53:00,54.9,18.7,29.96,SE,135,3.0,7.0,24,0.00,,,0.00,meteohub,2013-02-27 11:53:00,
2013-02-27 05:58:00,54.5,18.5,29.96,ESE,113,4.0,6.0,24,0.00,,,0.00,meteohub,2013-02-27 11:58:00,
2013-02-27 06:03:00,54.3,18.3,29.96,South,180,4.0,5.0,24,0.00,,,0.00,meteohub,2013-02-27 12:03:00,
2013-02-27 06:09:00,53.6,18.7,29.97,NW,315,3.0,4.0,25,0.00,,,0.00,meteohub,2013-02-27 12:09:00,
2013-02-27 06:14:00,53.2,20.1,29.98,SE,135,5.0,5.0,27,0.00,,,0.00,meteohub,2013-02-27 12:14:00,
2013-02-27 06:19:00,53.4,19.4,29.98,SW,225,2.0,5.0,26,0.00,,,0.00,meteohub,2013-02-27 12:19:00,
2013-02-27 06:24:00,53.6,18.7,29.99,NE,45,4.0,6.0,25,0.00,,,0.00,meteohub,2013-02-27 12:24:00,
2013-02-27 06:29:00,53.6,19.6,29.99,NW,315,3.0,6.0,26,0.00,,,0.00,meteohub,2013-02-27 12:29:00,
2013-02-27 06:34:00,53.8,19.8,30.00,South,180,5.0,6.0,26,0.00,,,0.00,meteohub,2013-02-27 12:34:00,
2013-02-27 06:39:00,53.6,19.6,30.01,South,180,2.0,6.0,26,0.00,,,0.00,meteohub,2013-02-27 12:39:00,
2013-02-27 06:44:00,53.4,21.2,30.01,South,180,4.0,6.0,28,0.00,,,0.00,meteohub,2013-02-27 12:44:00,
2013-02-27 06:49:00,53.2,23.4,30.02,South,180,4.0,8.0,31,0.00,,,0.00,meteohub,2013-02-27 12:49:00,
2013-02-27 06:54:00,52.9,23.9,30.03,WSW,248,5.0,9.0,32,0.00,,,0.00,meteohub,2013-02-27 12:54:00,
2013-02-27 06:59:00,52.5,24.3,30.04,SW,225,9.0,14.0,33,0.00,,,0.00,meteohub,2013-02-27 12:59:00,
2013-02-27 07:04:00,52.0,24.4,30.04,SW,225,8.0,14.0,34,0.00,,,0.00,meteohub,2013-02-27 13:04:00,
2013-02-27 07:09:00,51.3,25.9,30.06,North,0,13.0,15.0,37,0.00,,,0.00,meteohub,2013-02-27 13:09:00,
2013-02-27 07:14:00,50.7,26.6,30.06,SW,225,9.0,15.0,39,0.00,,,0.00,meteohub,2013-02-27 13:14:00,
2013-02-27 07:19:00,50.4,27.5,30.06,East,90,11.0,15.0,41,0.00,,,0.00,meteohub,2013-02-27 13:19:00,
2013-02-27 07:24:00,49.6,28.6,30.07,WNW,293,5.0,15.0,44,0.00,,,0.00,meteohub,2013-02-27 13:24:00,
2013-02-27 07:30:00,48.9,28.0,30.08,West,270,4.0,14.0,44,0.00,,,0.00,meteohub,2013-02-27 13:30:00,
2013-02-27 07:35:00,48.4,28.6,30.09,West,270,6.0,14.0,46,0.00,,,0.00,meteohub,2013-02-27 13:35:00,
2013-02-27 07:40:00,47.7,28.4,30.09,West,270,4.0,9.0,47,0.00,,,0.00,meteohub,2013-02-27 13:40:00,
2013-02-27 07:45:00,47.3,29.1,30.10,South,180,7.0,9.0,49,0.00,,,0.00,meteohub,2013-02-27 13:45:00,
2013-02-27 07:50:00,46.8,29.7,30.11,NW,315,6.0,9.0,51,0.00,,,0.00,meteohub,2013-02-27 13:50:00,
2013-02-27 07:55:00,46.8,30.6,30.11,NW,315,11.0,11.0,53,0.00,,,0.00,meteohub,2013-02-27 13:55:00,
2013-02-27 08:00:00,46.8,31.5,30.12,NW,315,8.0,9.0,55,0.00,,,0.00,meteohub,2013-02-27 14:00:00,
2013-02-27 08:05:00,46.8,31.5,30.12,NW,315,8.0,11.0,55,0.00,,,0.00,meteohub,2013-02-27 14:05:00,
2013-02-27 08:10:00,47.1,31.8,30.13,North,0,8.0,11.0,55,0.00,,,0.00,meteohub,2013-02-27 14:10:00,
2013-02-27 08:15:00,46.6,31.3,30.14,NW,315,11.0,11.0,55,0.00,,,0.00,meteohub,2013-02-27 14:15:00,
2013-02-27 08:20:00,45.7,30.9,30.14,SE,135,7.0,11.0,56,0.00,,,0.00,meteohub,2013-02-27 14:20:00,
2013-02-27 08:25:00,45.9,31.5,30.15,NW,315,15.0,15.0,57,0.00,,,0.00,meteohub,2013-02-27 14:25:00,
2013-02-27 08:30:00,46.9,32.5,30.14,West,270,7.0,15.0,57,0.00,,,0.00,meteohub,2013-02-27 14:30:00,
2013-02-27 08:35:00,47.7,32.7,30.14,WSW,248,4.0,15.0,56,0.00,,,0.00,meteohub,2013-02-27 14:35:00,
2013-02-27 08:40:00,48.4,32.9,30.15,NW,315,10.0,15.0,55,0.00,,,0.00,meteohub,2013-02-27 14:40:00,
2013-02-27 08:45:00,48.0,32.5,30.15,SW,225,6.0,11.0,55,0.00,,,0.00,meteohub,2013-02-27 14:45:00,
2013-02-27 08:50:00,47.8,32.9,30.15,West,270,9.0,10.0,56,0.00,,,0.00,meteohub,2013-02-27 14:50:00,
2013-02-27 08:55:00,48.4,32.9,30.16,West,270,5.0,10.0,55,0.00,,,0.00,meteohub,2013-02-27 14:55:00,
2013-02-27 09:00:00,50.2,33.6,30.16,NW,315,5.0,9.0,53,0.00,,,0.00,meteohub,2013-02-27 15:00:00,
2013-02-27 09:05:00,51.3,33.8,30.16,South,180,6.0,9.0,51,0.00,,,0.00,meteohub,2013-02-27 15:05:00,
2013-02-27 09:10:00,51.4,33.4,30.17,SW,225,5.0,8.0,50,0.00,,,0.00,meteohub,2013-02-27 15:10:00,
2013-02-27 09:15:00,51.4,32.9,30.16,WSW,248,6.0,9.0,49,0.00,,,0.00,meteohub,2013-02-27 15:15:00,
2013-02-27 09:20:00,51.6,33.1,30.16,West,270,8.0,9.0,49,0.00,,,0.00,meteohub,2013-02-27 15:20:00,
2013-02-27 09:26:00,51.8,32.7,30.16,West,270,7.0,9.0,48,0.00,,,0.00,meteohub,2013-02-27 15:26:00,
2013-02-27 09:31:00,52.7,33.6,30.17,West,270,4.0,8.0,48,0.00,,,0.00,meteohub,2013-02-27 15:31:00,
2013-02-27 09:36:00,53.2,33.1,30.17,West,270,4.0,8.0,46,0.00,,,0.00,meteohub,2013-02-27 15:36:00,
2013-02-27 09:41:00,53.4,33.1,30.17,South,180,4.0,8.0,46,0.00,,,0.00,meteohub,2013-02-27 15:41:00,
2013-02-27 09:46:00,54.3,33.4,30.17,West,270,8.0,8.0,45,0.00,,,0.00,meteohub,2013-02-27 15:46:00,
2013-02-27 09:51:00,55.2,33.1,30.17,West,270,4.0,8.0,43,0.00,,,0.00,meteohub,2013-02-27 15:51:00,
2013-02-27 09:56:00,55.2,33.6,30.17,NW,315,5.0,8.0,44,0.00,,,0.00,meteohub,2013-02-27 15:56:00,
2013-02-27 10:01:00,56.1,34.0,30.17,West,270,4.0,8.0,43,0.00,,,0.00,meteohub,2013-02-27 16:01:00,
2013-02-27 10:06:00,56.1,34.0,30.17,West,270,4.0,10.0,43,0.00,,,0.00,meteohub,2013-02-27 16:06:00,
2013-02-27 10:11:00,56.8,34.0,30.18,WNW,293,5.0,10.0,42,0.00,,,0.00,meteohub,2013-02-27 16:11:00,
2013-02-27 10:16:00,57.4,33.3,30.18,South,180,8.0,8.0,40,0.00,,,0.00,meteohub,2013-02-27 16:16:00,
2013-02-27 10:21:00,56.8,33.4,30.18,WNW,293,8.0,8.0,41,0.00,,,0.00,meteohub,2013-02-27 16:21:00,
2013-02-27 10:26:00,56.5,33.6,30.18,West,270,5.0,9.0,42,0.00,,,0.00,meteohub,2013-02-27 16:26:00,
2013-02-27 10:31:00,57.7,33.6,30.18,WSW,248,8.0,9.0,40,0.00,,,0.00,meteohub,2013-02-27 16:31:00,
2013-02-27 10:36:00,58.3,33.4,30.19,NW,315,8.0,9.0,39,0.00,,,0.00,meteohub,2013-02-27 16:36:00,
2013-02-27 10:41:00,59.2,33.6,30.19,NW,315,6.0,9.0,38,0.00,,,0.00,meteohub,2013-02-27 16:41:00,
2013-02-27 10:47:00,60.1,33.8,30.18,SW,225,9.0,9.0,37,0.00,,,0.00,meteohub,2013-02-27 16:47:00,
2013-02-27 10:52:00,59.9,32.9,30.19,West,270,8.0,9.0,36,0.00,,,0.00,meteohub,2013-02-27 16:52:00,
2013-02-27 10:57:00,59.4,32.4,30.19,WNW,293,11.0,11.0,36,0.00,,,0.00,meteohub,2013-02-27 16:57:00,
2013-02-27 11:02:00,59.9,32.9,30.19,North,0,4.0,11.0,36,0.00,,,0.00,meteohub,2013-02-27 17:02:00,
2013-02-27 11:07:00,59.9,32.2,30.19,North,0,8.0,11.0,35,0.00,,,0.00,meteohub,2013-02-27 17:07:00,
2013-02-27 11:12:00,60.3,32.5,30.19,North,0,5.0,11.0,35,0.00,,,0.00,meteohub,2013-02-27 17:12:00,
2013-02-27 11:17:00,60.8,32.2,30.19,West,270,9.0,9.0,34,0.00,,,0.00,meteohub,2013-02-27 17:17:00,
2013-02-27 11:22:00,61.3,32.0,30.19,NW,315,8.0,9.0,33,0.00,,,0.00,meteohub,2013-02-27 17:22:00,
2013-02-27 11:27:00,62.1,32.5,30.19,SW,225,4.0,9.0,33,0.00,,,0.00,meteohub,2013-02-27 17:27:00,
2013-02-27 11:32:00,61.2,31.1,30.19,SSW,203,7.0,9.0,32,0.00,,,0.00,meteohub,2013-02-27 17:32:00,
2013-02-27 11:37:00,61.2,31.1,30.19,SW,225,8.0,11.0,32,0.00,,,0.00,meteohub,2013-02-27 17:37:00,
2013-02-27 11:38:00,61.5,31.5,30.19,East,90,10.0,11.0,32,0.00,,,0.00,meteohub,2013-02-27 17:38:00,
2013-02-27 11:47:00,62.2,31.3,30.19,NW,315,5.0,11.0,31,0.00,,,0.00,meteohub,2013-02-27 17:47:00,
2013-02-27 11:52:00,63.0,29.3,30.19,WNW,293,8.0,11.0,28,0.00,,,0.00,meteohub,2013-02-27 17:52:00,
2013-02-27 11:57:00,63.9,30.2,30.18,West,270,5.0,11.0,28,0.00,,,0.00,meteohub,2013-02-27 17:57:00,
2013-02-27 12:02:00,64.4,30.6,30.18,NW,315,9.0,10.0,28,0.00,,,0.00,meteohub,2013-02-27 18:02:00,
2013-02-27 12:07:00,64.8,29.1,30.18,West,270,5.0,10.0,26,0.00,,,0.00,meteohub,2013-02-27 18:07:00,
2013-02-27 12:12:00,64.0,26.6,30.18,NW,315,8.0,10.0,24,0.00,,,0.00,meteohub,2013-02-27 18:12:00,
2013-02-27 12:17:00,63.0,25.5,30.18,NW,315,8.0,12.0,24,0.00,,,0.00,meteohub,2013-02-27 18:17:00,
2013-02-27 12:22:00,64.9,29.3,30.18,West,270,6.0,12.0,26,0.00,,,0.00,meteohub,2013-02-27 18:22:00,
2013-02-27 12:27:00,64.8,27.1,30.19,SW,225,7.0,12.0,24,0.00,,,0.00,meteohub,2013-02-27 18:27:00,
2013-02-27 12:32:00,65.1,28.4,30.18,South,180,8.0,11.0,25,0.00,,,0.00,meteohub,2013-02-27 18:32:00,
2013-02-27 12:37:00,65.5,27.7,30.18,West,270,7.0,11.0,24,0.00,,,0.00,meteohub,2013-02-27 18:37:00,
2013-02-27 12:42:00,65.7,27.9,30.18,SW,225,8.0,11.0,24,0.00,,,0.00,meteohub,2013-02-27 18:42:00,
2013-02-27 12:47:00,65.7,26.8,30.18,NW,315,8.0,11.0,23,0.00,,,0.00,meteohub,2013-02-27 18:47:00,
2013-02-27 12:52:00,65.5,27.7,30.18,North,0,5.0,10.0,24,0.00,,,0.00,meteohub,2013-02-27 18:52:00,
2013-02-27 12:57:00,65.8,28.0,30.18,West,270,8.0,10.0,24,0.00,,,0.00,meteohub,2013-02-27 18:57:00,
2013-02-27 13:02:00,66.2,26.2,30.18,NW,315,12.0,12.0,22,0.00,,,0.00,meteohub,2013-02-27 19:02:00,
2013-02-27 13:07:00,65.5,26.8,30.18,South,180,8.0,12.0,23,0.00,,,0.00,meteohub,2013-02-27 19:07:00,
2013-02-27 13:12:00,64.9,26.2,30.17,SE,135,11.0,12.0,23,0.00,,,0.00,meteohub,2013-02-27 19:12:00,
2013-02-27 13:17:00,65.7,26.8,30.17,West,270,8.0,12.0,23,0.00,,,0.00,meteohub,2013-02-27 19:17:00,
2013-02-27 13:22:00,66.4,26.4,30.17,SW,225,8.0,11.0,22,0.00,,,0.00,meteohub,2013-02-27 19:22:00,
2013-02-27 13:27:00,66.4,25.3,30.17,NW,315,10.0,13.0,21,0.00,,,0.00,meteohub,2013-02-27 19:27:00,
2013-02-27 13:32:00,66.2,25.2,30.18,West,270,8.0,13.0,21,0.00,,,0.00,meteohub,2013-02-27 19:32:00,
2013-02-27 13:37:00,66.6,25.3,30.17,West,270,5.0,13.0,21,0.00,,,0.00,meteohub,2013-02-27 19:37:00,
2013-02-27 13:42:00,68.0,25.3,30.17,South,180,6.0,11.0,20,0.00,,,0.00,meteohub,2013-02-27 19:42:00,
2013-02-27 13:47:00,67.5,25.0,30.17,NW,315,8.0,10.0,20,0.00,,,0.00,meteohub,2013-02-27 19:47:00,
2013-02-27 13:53:00,68.2,24.3,30.17,South,180,4.0,10.0,19,0.00,,,0.00,meteohub,2013-02-27 19:53:00,
2013-02-27 13:58:00,67.5,25.0,30.17,SE,135,8.0,9.0,20,0.00,,,0.00,meteohub,2013-02-27 19:58:00,
2013-02-27 14:03:00,66.0,25.0,30.16,NE,45,6.0,10.0,21,0.00,,,0.00,meteohub,2013-02-27 20:03:00,
2013-02-27 14:08:00,66.4,25.3,30.17,NW,315,4.0,10.0,21,0.00,,,0.00,meteohub,2013-02-27 20:08:00,
2013-02-27 14:13:00,65.7,25.7,30.17,West,270,4.0,10.0,22,0.00,,,0.00,meteohub,2013-02-27 20:13:00,
2013-02-27 14:18:00,66.6,24.3,30.17,NW,315,11.0,11.0,20,0.00,,,0.00,meteohub,2013-02-27 20:18:00,
2013-02-27 14:23:00,68.0,24.3,30.17,East,90,8.0,13.0,19,0.00,,,0.00,meteohub,2013-02-27 20:23:00,
2013-02-27 14:28:00,68.0,22.8,30.17,West,270,8.0,13.0,18,0.00,,,0.00,meteohub,2013-02-27 20:28:00,
2013-02-27 14:33:00,66.9,23.4,30.17,West,270,9.0,13.0,19,0.00,,,0.00,meteohub,2013-02-27 20:33:00,
2013-02-27 14:38:00,67.1,23.5,30.17,West,270,4.0,10.0,19,0.00,,,0.00,meteohub,2013-02-27 20:38:00,
2013-02-27 14:43:00,67.8,22.8,30.16,SW,225,4.0,10.0,18,0.00,,,0.00,meteohub,2013-02-27 20:43:00,
2013-02-27 14:48:00,67.3,22.3,30.17,North,0,8.0,9.0,18,0.00,,,0.00,meteohub,2013-02-27 20:48:00,
2013-02-27 14:53:00,66.9,22.1,30.17,West,270,10.0,11.0,18,0.00,,,0.00,meteohub,2013-02-27 20:53:00,
2013-02-27 14:58:00,67.8,22.8,30.16,NW,315,5.0,11.0,18,0.00,,,0.00,meteohub,2013-02-27 20:58:00,
2013-02-27 15:03:00,68.4,21.9,30.16,West,270,9.0,10.0,17,0.00,,,0.00,meteohub,2013-02-27 21:03:00,
2013-02-27 15:08:00,67.8,22.8,30.16,WSW,248,8.0,10.0,18,0.00,,,0.00,meteohub,2013-02-27 21:08:00,
2013-02-27 15:13:00,67.8,22.8,30.16,SW,225,8.0,11.0,18,0.00,,,0.00,meteohub,2013-02-27 21:13:00,
2013-02-27 15:18:00,68.7,22.1,30.16,West,270,6.0,11.0,17,0.00,,,0.00,meteohub,2013-02-27 21:18:00,
2013-02-27 15:24:00,70.0,20.1,30.15,NW,315,8.0,10.0,15,0.00,,,0.00,meteohub,2013-02-27 21:24:00,
2013-02-27 15:28:00,67.5,21.2,30.15,NW,315,7.0,11.0,17,0.00,,,0.00,meteohub,2013-02-27 21:28:00,
2013-02-27 15:32:00,68.0,21.6,30.16,NNW,338,8.0,11.0,17,0.00,,,0.00,meteohub,2013-02-27 21:32:00,
2013-02-27 15:37:00,68.2,21.7,30.15,NW,315,8.0,11.0,17,0.00,,,0.00,meteohub,2013-02-27 21:37:00,
2013-02-27 15:42:00,68.2,21.7,30.15,NW,315,7.0,9.0,17,0.00,,,0.00,meteohub,2013-02-27 21:42:00,
2013-02-27 15:47:00,67.5,22.5,30.16,NW,315,8.0,9.0,18,0.00,,,0.00,meteohub,2013-02-27 21:47:00,
2013-02-27 15:52:00,68.9,22.3,30.15,NW,315,8.0,9.0,17,0.00,,,0.00,meteohub,2013-02-27 21:52:00,
2013-02-27 15:57:00,70.3,22.1,30.15,SE,135,6.0,9.0,16,0.00,,,0.00,meteohub,2013-02-27 21:57:00,
2013-02-27 16:02:00,70.9,22.5,30.15,South,180,5.0,8.0,16,0.00,,,0.00,meteohub,2013-02-27 22:02:00,
2013-02-27 16:07:00,70.2,21.9,30.14,NW,315,4.0,8.0,16,0.00,,,0.00,meteohub,2013-02-27 22:07:00,
2013-02-27 16:12:00,70.5,22.1,30.14,NW,315,5.0,8.0,16,0.00,,,0.00,meteohub,2013-02-27 22:12:00,
2013-02-27 16:17:00,70.7,22.3,30.15,West,270,4.0,8.0,16,0.00,,,0.00,meteohub,2013-02-27 22:17:00,
2013-02-27 16:22:00,70.3,22.1,30.15,West,270,7.0,7.0,16,0.00,,,0.00,meteohub,2013-02-27 22:22:00,
2013-02-27 16:27:00,70.5,23.5,30.15,SW,225,8.0,9.0,17,0.00,,,0.00,meteohub,2013-02-27 22:27:00,
2013-02-27 16:32:00,70.2,23.4,30.15,SW,225,5.0,10.0,17,0.00,,,0.00,meteohub,2013-02-27 22:32:00,
2013-02-27 16:37:00,70.2,23.4,30.16,SW,225,5.0,10.0,17,0.00,,,0.00,meteohub,2013-02-27 22:37:00,
2013-02-27 16:42:00,69.1,22.5,30.15,NW,315,4.0,10.0,17,0.00,,,0.00,meteohub,2013-02-27 22:42:00,
2013-02-27 16:47:00,69.1,23.7,30.16,WNW,293,10.0,10.0,18,0.00,,,0.00,meteohub,2013-02-27 22:47:00,
2013-02-27 16:52:00,68.7,23.5,30.15,NW,315,4.0,10.0,18,0.00,,,0.00,meteohub,2013-02-27 22:52:00,
2013-02-27 16:57:00,68.9,23.7,30.16,NW,315,9.0,10.0,18,0.00,,,0.00,meteohub,2013-02-27 22:57:00,
2013-02-27 17:02:00,68.9,23.7,30.16,SW,225,7.0,10.0,18,0.00,,,0.00,meteohub,2013-02-27 23:02:00,
2013-02-27 17:07:00,68.0,22.8,30.17,NW,315,8.0,9.0,18,0.00,,,0.00,meteohub,2013-02-27 23:07:00,
2013-02-27 17:12:00,67.1,24.6,30.16,SW,225,4.0,9.0,20,0.00,,,0.00,meteohub,2013-02-27 23:12:00,
2013-02-27 17:17:00,65.8,24.8,30.16,North,0,7.0,9.0,21,0.00,,,0.00,meteohub,2013-02-27 23:17:00,
2013-02-27 17:22:00,63.9,23.2,30.16,West,270,4.0,9.0,21,0.00,,,0.00,meteohub,2013-02-27 23:22:00,
2013-02-27 17:27:00,63.0,23.5,30.16,NW,315,4.0,9.0,22,0.00,,,0.00,meteohub,2013-02-27 23:27:00,
2013-02-27 17:32:00,62.6,22.1,30.16,NW,315,5.0,8.0,21,0.00,,,0.00,meteohub,2013-02-27 23:32:00,
2013-02-27 17:38:00,62.8,22.3,30.17,NW,315,5.0,9.0,21,0.00,,,0.00,meteohub,2013-02-27 23:38:00,
2013-02-27 17:42:00,62.1,22.8,30.16,West,270,5.0,9.0,22,0.00,,,0.00,meteohub,2013-02-27 23:42:00,
2013-02-27 17:48:00,60.6,22.6,30.17,NW,315,4.0,9.0,23,0.00,,,0.00,meteohub,2013-02-27 23:48:00,
2013-02-27 17:53:00,59.9,23.0,30.17,WNW,293,5.0,7.0,24,0.00,,,0.00,meteohub,2013-02-27 23:53:00,
2013-02-27 17:58:00,59.2,22.5,30.17,North,0,3.0,8.0,24,0.00,,,0.00,meteohub,2013-02-27 23:58:00,
2013-02-27 18:03:00,59.0,22.3,30.18,SE,135,2.0,8.0,24,0.00,,,0.00,meteohub,2013-02-28 00:03:00,
2013-02-27 18:08:00,58.1,22.5,30.18,WNW,293,4.0,8.0,25,0.00,,,0.00,meteohub,2013-02-28 00:08:00,
2013-02-27 18:13:00,57.6,21.9,30.18,West,270,7.0,7.0,25,0.00,,,0.00,meteohub,2013-02-28 00:13:00,
2013-02-27 18:18:00,56.8,23.2,30.18,West,270,2.0,7.0,27,0.00,,,0.00,meteohub,2013-02-28 00:18:00,
2013-02-27 18:23:00,56.1,22.6,30.19,West,270,2.0,7.0,27,0.00,,,0.00,meteohub,2013-02-28 00:23:00,
2013-02-27 18:28:00,55.4,21.9,30.19,WNW,293,4.0,7.0,27,0.00,,,0.00,meteohub,2013-02-28 00:28:00,
2013-02-27 18:33:00,55.0,20.8,30.19,SW,225,2.0,5.0,26,0.00,,,0.00,meteohub,2013-02-28 00:33:00,
2013-02-27 18:38:00,54.7,20.5,30.19,West,270,2.0,4.0,26,0.00,,,0.00,meteohub,2013-02-28 00:38:00,
2013-02-27 18:43:00,54.1,19.9,30.19,SW,225,2.0,4.0,26,0.00,,,0.00,meteohub,2013-02-28 00:43:00,
2013-02-27 18:48:00,53.6,19.6,30.19,SW,225,2.0,3.0,26,0.00,,,0.00,meteohub,2013-02-28 00:48:00,
2013-02-27 18:53:00,53.2,20.1,30.19,West,270,0.0,3.0,27,0.00,,,0.00,meteohub,2013-02-28 00:53:00,
2013-02-27 18:59:00,52.5,20.3,30.19,SW,225,0.0,3.0,28,0.00,,,0.00,meteohub,2013-02-28 00:59:00,
2013-02-27 19:04:00,51.6,21.2,30.20,SW,225,0.0,3.0,30,0.00,,,0.00,meteohub,2013-02-28 01:04:00,
2013-02-27 19:09:00,50.9,21.4,30.20,East,90,0.0,2.0,31,0.00,,,0.00,meteohub,2013-02-28 01:09:00,
2013-02-27 19:14:00,50.4,21.6,30.20,East,90,0.0,1.0,32,0.00,,,0.00,meteohub,2013-02-28 01:14:00,
2013-02-27 19:19:00,49.6,22.5,30.20,NE,45,2.0,2.0,34,0.00,,,0.00,meteohub,2013-02-28 01:19:00,
2013-02-27 19:24:00,49.1,22.6,30.21,NE,45,0.0,2.0,35,0.00,,,0.00,meteohub,2013-02-28 01:24:00,
2013-02-27 19:29:00,48.4,21.9,30.21,NE,45,0.0,2.0,35,0.00,,,0.00,meteohub,2013-02-28 01:29:00,
2013-02-27 19:34:00,47.7,22.1,30.21,NE,45,0.0,2.0,36,0.00,,,0.00,meteohub,2013-02-28 01:34:00,
2013-02-27 19:39:00,47.1,22.8,30.21,NE,45,0.0,1.0,38,0.00,,,0.00,meteohub,2013-02-28 01:39:00,
2013-02-27 19:44:00,46.6,23.0,30.21,NE,45,1.0,1.0,39,0.00,,,0.00,meteohub,2013-02-28 01:44:00,
2013-02-27 19:49:00,46.2,23.9,30.21,NE,45,1.0,2.0,41,0.00,,,0.00,meteohub,2013-02-28 01:49:00,
2013-02-27 19:54:00,45.9,23.5,30.21,NE,45,0.0,2.0,41,0.00,,,0.00,meteohub,2013-02-28 01:54:00,
2013-02-27 19:59:00,45.5,23.7,30.22,NE,45,2.0,2.0,42,0.00,,,0.00,meteohub,2013-02-28 01:59:00,
2013-02-27 20:05:00,45.1,23.4,30.22,NE,45,1.0,2.0,42,0.00,,,0.00,meteohub,2013-02-28 02:05:00,
2013-02-27 20:10:00,45.0,23.2,30.22,NE,45,1.0,2.0,42,0.00,,,0.00,meteohub,2013-02-28 02:10:00,
2013-02-27 20:15:00,44.6,23.0,30.22,NE,45,1.0,2.0,42,0.00,,,0.00,meteohub,2013-02-28 02:15:00,
2013-02-27 20:20:00,43.9,22.8,30.22,NE,45,1.0,2.0,43,0.00,,,0.00,meteohub,2013-02-28 02:20:00,
2013-02-27 20:25:00,43.2,22.1,30.22,NE,45,2.0,2.0,43,0.00,,,0.00,meteohub,2013-02-28 02:25:00,
2013-02-27 20:30:00,42.3,22.5,30.22,NE,45,1.0,2.0,45,0.00,,,0.00,meteohub,2013-02-28 02:30:00,
2013-02-27 20:35:00,41.7,22.5,30.22,NE,45,2.0,2.0,46,0.00,,,0.00,meteohub,2013-02-28 02:35:00,
2013-02-27 20:40:00,41.2,22.5,30.23,NE,45,2.0,2.0,47,0.00,,,0.00,meteohub,2013-02-28 02:40:00,
2013-02-27 20:45:00,40.6,23.0,30.23,NE,45,2.0,2.0,49,0.00,,,0.00,meteohub,2013-02-28 02:45:00,
2013-02-27 20:50:00,40.3,22.6,30.23,NE,45,2.0,2.0,49,0.00,,,0.00,meteohub,2013-02-28 02:50:00,
2013-02-27 20:55:00,40.1,23.0,30.24,SE,135,2.0,2.0,50,0.00,,,0.00,meteohub,2013-02-28 02:55:00,
2013-02-27 21:00:00,39.9,22.3,30.24,East,90,2.0,2.0,49,0.00,,,0.00,meteohub,2013-02-28 03:00:00,
2013-02-27 21:05:00,39.4,22.3,30.24,NE,45,2.0,2.0,50,0.00,,,0.00,meteohub,2013-02-28 03:05:00,
2013-02-27 21:10:00,39.0,21.9,30.25,NE,45,1.0,2.0,50,0.00,,,0.00,meteohub,2013-02-28 03:10:00,
2013-02-27 21:15:00,38.5,21.4,30.25,East,90,2.0,2.0,50,0.00,,,0.00,meteohub,2013-02-28 03:15:00,
2013-02-27 21:21:00,38.3,22.3,30.25,NE,45,0.0,2.0,52,0.00,,,0.00,meteohub,2013-02-28 03:21:00,
2013-02-27 21:26:00,37.9,21.9,30.25,NE,45,1.0,2.0,52,0.00,,,0.00,meteohub,2013-02-28 03:26:00,
2013-02-27 21:31:00,37.8,22.1,30.25,NE,45,2.0,2.0,53,0.00,,,0.00,meteohub,2013-02-28 03:31:00,
2013-02-27 21:36:00,37.8,22.1,30.25,NE,45,2.0,2.0,53,0.00,,,0.00,meteohub,2013-02-28 03:36:00,
2013-02-27 21:41:00,37.9,21.9,30.25,NE,45,2.0,2.0,52,0.00,,,0.00,meteohub,2013-02-28 03:41:00,
2013-02-27 21:46:00,37.9,21.9,30.25,NE,45,2.0,2.0,52,0.00,,,0.00,meteohub,2013-02-28 03:46:00,
2013-02-27 21:51:00,37.9,21.4,30.25,NE,45,2.0,2.0,51,0.00,,,0.00,meteohub,2013-02-28 03:51:00,
2013-02-27 21:56:00,37.6,21.0,30.25,NE,45,2.0,2.0,51,0.00,,,0.00,meteohub,2013-02-28 03:56:00,
2013-02-27 22:01:00,37.2,19.4,30.25,NE,45,1.0,2.0,48,0.00,,,0.00,meteohub,2013-02-28 04:01:00,
2013-02-27 22:06:00,36.7,18.9,30.25,NE,45,1.0,2.0,48,0.00,,,0.00,meteohub,2013-02-28 04:06:00,
2013-02-27 22:11:00,36.3,18.5,30.25,East,90,0.0,2.0,48,0.00,,,0.00,meteohub,2013-02-28 04:11:00,
2013-02-27 22:16:00,36.1,18.9,30.25,East,90,0.0,2.0,49,0.00,,,0.00,meteohub,2013-02-28 04:16:00,
2013-02-27 22:21:00,36.1,18.9,30.25,East,90,0.0,8.0,49,0.00,,,0.00,meteohub,2013-02-28 04:21:00,
2013-02-27 22:26:00,35.4,19.6,30.25,NE,45,1.0,8.0,52,0.00,,,0.00,meteohub,2013-02-28 04:26:00,
2013-02-27 22:31:00,35.2,19.4,30.25,East,90,2.0,8.0,52,0.00,,,0.00,meteohub,2013-02-28 04:31:00,
2013-02-27 22:36:00,35.2,19.4,30.25,NE,45,1.0,2.0,52,0.00,,,0.00,meteohub,2013-02-28 04:36:00,
2013-02-27 22:41:00,35.1,19.2,30.25,East,90,2.0,2.0,52,0.00,,,0.00,meteohub,2013-02-28 04:41:00,
2013-02-27 22:47:00,34.9,19.4,30.26,NE,45,2.0,2.0,53,0.00,,,0.00,meteohub,2013-02-28 04:47:00,
2013-02-27 22:52:00,34.7,18.9,30.25,NE,45,1.0,2.0,52,0.00,,,0.00,meteohub,2013-02-28 04:52:00,
2013-02-27 22:57:00,34.7,18.9,30.25,East,90,0.0,2.0,52,0.00,,,0.00,meteohub,2013-02-28 04:57:00,
2013-02-27 23:00:00,34.5,18.7,30.25,East,90,0.0,2.0,52,0.00,,,0.00,meteohub,2013-02-28 05:00:00,
2013-02-27 23:01:00,34.5,18.7,30.25,NE,45,0.0,2.0,52,0.00,,,0.00,meteohub,2013-02-28 05:01:00,
2013-02-27 23:06:00,34.3,19.0,30.25,ENE,68,2.0,2.0,53,0.00,,,0.00,meteohub,2013-02-28 05:06:00,
2013-02-27 23:11:00,34.2,18.9,30.25,East,90,2.0,2.0,53,0.00,,,0.00,meteohub,2013-02-28 05:11:00,
2013-02-27 23:16:00,34.2,19.2,30.26,NE,45,2.0,2.0,54,0.00,,,0.00,meteohub,2013-02-28 05:16:00,
2013-02-27 23:21:00,34.2,19.2,30.26,NE,45,2.0,2.0,54,0.00,,,0.00,meteohub,2013-02-28 05:21:00,
2013-02-27 23:26:00,34.3,19.4,30.26,NE,45,2.0,2.0,54,0.00,,,0.00,meteohub,2013-02-28 05:26:00,
2013-02-27 23:31:00,34.5,19.2,30.27,NE,45,2.0,2.0,53,0.00,,,0.00,meteohub,2013-02-28 05:31:00,
2013-02-27 23:36:00,35.1,20.1,30.27,ENE,68,3.0,3.0,54,0.00,,,0.00,meteohub,2013-02-28 05:36:00,
2013-02-27 23:41:00,36.0,20.1,30.27,East,90,1.0,3.0,52,0.00,,,0.00,meteohub,2013-02-28 05:41:00,
2013-02-27 23:46:00,35.6,19.2,30.27,NE,45,1.0,3.0,51,0.00,,,0.00,meteohub,2013-02-28 05:46:00,
2013-02-27 23:51:00,34.9,19.0,30.27,SE,135,1.0,3.0,52,0.00,,,0.00,meteohub,2013-02-28 05:51:00,
2013-02-27 23:56:00,34.2,18.9,30.27,NE,45,2.0,2.0,53,0.00,,,0.00,meteohub,2013-02-28 05:56:00,